Airfield :
LOGIN :

Register | Disclaimer

   EN    FR    IT 

 










Legend :    VFR   Marginal VFR   IFR   Intensive IFR   Very Intensive IFR
Visi :
Ceiling :
>= 8 km
>= 3000ft
5 to 8 km
1000 to 3000 ft
1500m to 5 km
500 to 1000 ft
800 to 1500m
200 to 500 ft
< 800m
< 200 ft
Symbols :   Thunderstorms  Fog  Heavy snow  Heavy precipitations  Wind > 20 kt
SIGMETs :     Misc.  Thunderstorms  Icing  Turbulence  Mountain Waves  Volcanic Ashes






- Airport Elevation : 20 ft


EBFN - Koksijde

CURRENT METAR :
  • 181255Z 33008KT 9999 FEW028 SCT033 10/04 Q1022 BLU BLU

EXPIRED METARs :
  • 181225Z 33008KT 9999 FEW028 SCT033 10/04 Q1022 BLU BLU
  • 181155Z 32006KT 9999 FEW028 SCT032 10/04 Q1022 BLU BLU
  • 181125Z 33006KT 9999 FEW029 SCT032 10/04 Q1022 BLU BLU
  • 181055Z 30006KT 9999 FEW027 SCT030 10/03 Q1022 BLU BLU
  • 181025Z 31006KT 9999 SCT027 10/05 Q1022 BLU BLU
  • 180955Z 35006KT 9999 FEW030 SCT033 09/03 Q1022 BLU BLU
  • 180925Z 34007KT 9999 FEW029 SCT033 10/03 Q1022 BLU BLU
  • 180855Z 03004KT 9999 FEW028 SCT032 09/03 Q1022 BLU BLU
  • 180825Z 10003KT 9999 FEW027 SCT032 09/04 Q1021 BLU BLU

TAF TAF EBFN
Valid from the 18 at 13:00 until the 18 at 22:00 UTC


181141Z 1813/1822 31007KT 9999 FEW028 SCT300
BECMG 1817/1819 25006KT BKN120
BECMG 1820/1822 25013KT SCT045 BKN070



MET'MAP, your aeronautical weather chart ! - Copyright ORBIFLY December 2007 - Disclaimer

ORBIFLY MET'MAP TEAM :

Programming & Development : Alexandra Zaïnal
Original concept : Baudouin d'Aumeries
Technical & hardware support : Manuel Goepfert
Assistance : Marc-Olivier Méhu




SOURCES & CREDITS :

   NOAA